sensor_id;sensor_type;location;lat;lon;timestamp;temperature;humidity
29241;DHT22;16268;49.880;8.648;2023-04-03T00:01:27;5.30;99.90
29241;DHT22;16268;49.880;8.648;2023-04-03T00:03:53;5.20;99.90
29241;DHT22;16268;49.880;8.648;2023-04-03T00:06:19;5.20;99.90
29241;DHT22;16268;49.880;8.648;2023-04-03T00:08:44;5.10;99.90
29241;DHT22;16268;49.880;8.648;2023-04-03T00:11:10;5.10;99.90
29241;DHT22;16268;49.880;8.648;2023-04-03T00:13:36;5.10;99.90
29241;DHT22;16268;49.880;8.648;2023-04-03T00:16:02;5.10;99.90
29241;DHT22;16268;49.880;8.648;2023-04-03T00:18:28;5.10;99.90
29241;DHT22;16268;49.880;8.648;2023-04-03T00:20:54;5.00;99.90
29241;DHT22;16268;49.880;8.648;2023-04-03T00:23:20;5.00;99.90
29241;DHT22;16268;49.880;8.648;2023-04-03T00:25:46;4.90;99.90
29241;DHT22;16268;49.880;8.648;2023-04-03T00:28:11;4.90;99.90
29241;DHT22;16268;49.880;8.648;2023-04-03T00:30:37;4.90;99.90
29241;DHT22;16268;49.880;8.648;2023-04-03T00:33:03;4.90;99.90
29241;DHT22;16268;49.880;8.648;2023-04-03T00:35:29;4.80;99.90
29241;DHT22;16268;49.880;8.648;2023-04-03T00:37:55;4.80;99.90
29241;DHT22;16268;49.880;8.648;2023-04-03T00:40:23;4.80;99.90
29241;DHT22;16268;49.880;8.648;2023-04-03T00:42:55;4.80;99.90
29241;DHT22;16268;49.880;8.648;2023-04-03T00:45:29;4.80;99.90
29241;DHT22;16268;49.880;8.648;2023-04-03T00:47:56;4.80;99.90
29241;DHT22;16268;49.880;8.648;2023-04-03T00:50:22;4.80;99.90
29241;DHT22;16268;49.880;8.648;2023-04-03T00:52:48;4.80;99.90
29241;DHT22;16268;49.880;8.648;2023-04-03T00:55:15;4.80;99.90
29241;DHT22;16268;49.880;8.648;2023-04-03T00:57:41;4.80;99.90
29241;DHT22;16268;49.880;8.648;2023-04-03T01:00:11;4.80;99.90
29241;DHT22;16268;49.880;8.648;2023-04-03T01:02:37;4.80;99.90
29241;DHT22;16268;49.880;8.648;2023-04-03T01:05:03;4.80;99.90
29241;DHT22;16268;49.880;8.648;2023-04-03T01:07:30;4.80;99.90
29241;DHT22;16268;49.880;8.648;2023-04-03T01:09:58;4.90;99.90
29241;DHT22;16268;49.880;8.648;2023-04-03T01:12:33;4.80;99.90
29241;DHT22;16268;49.880;8.648;2023-04-03T01:15:13;4.80;99.90
29241;DHT22;16268;49.880;8.648;2023-04-03T01:17:43;4.80;99.90
29241;DHT22;16268;49.880;8.648;2023-04-03T01:25:25;4.80;99.90
29241;DHT22;16268;49.880;8.648;2023-04-03T01:27:51;4.80;99.90
29241;DHT22;16268;49.880;8.648;2023-04-03T01:30:19;4.90;99.90
29241;DHT22;16268;49.880;8.648;2023-04-03T01:32:45;4.80;99.90
29241;DHT22;16268;49.880;8.648;2023-04-03T01:35:11;4.90;99.90
29241;DHT22;16268;49.880;8.648;2023-04-03T01:37:37;5.00;99.90
29241;DHT22;16268;49.880;8.648;2023-04-03T01:40:03;5.00;99.90
29241;DHT22;16268;49.880;8.648;2023-04-03T01:42:29;4.90;99.90
29241;DHT22;16268;49.880;8.648;2023-04-03T01:44:55;4.90;99.90
29241;DHT22;16268;49.880;8.648;2023-04-03T01:47:21;4.90;99.90
29241;DHT22;16268;49.880;8.648;2023-04-03T01:49:46;5.00;99.90
29241;DHT22;16268;49.880;8.648;2023-04-03T01:52:12;4.90;99.90
29241;DHT22;16268;49.880;8.648;2023-04-03T01:54:37;4.90;99.90
29241;DHT22;16268;49.880;8.648;2023-04-03T01:57:03;5.00;99.90
29241;DHT22;16268;49.880;8.648;2023-04-03T01:59:29;4.90;99.90
29241;DHT22;16268;49.880;8.648;2023-04-03T02:01:54;4.90;99.90
29241;DHT22;16268;49.880;8.648;2023-04-03T02:04:20;4.90;99.90
29241;DHT22;16268;49.880;8.648;2023-04-03T02:06:46;5.00;99.90
29241;DHT22;16268;49.880;8.648;2023-04-03T02:09:11;5.00;99.90
29241;DHT22;16268;49.880;8.648;2023-04-03T02:11:37;5.10;99.90
29241;DHT22;16268;49.880;8.648;2023-04-03T02:14:03;5.10;99.90
29241;DHT22;16268;49.880;8.648;2023-04-03T02:16:29;5.10;99.90
29241;DHT22;16268;49.880;8.648;2023-04-03T02:18:54;5.00;99.90
29241;DHT22;16268;49.880;8.648;2023-04-03T02:21:20;5.00;99.90
29241;DHT22;16268;49.880;8.648;2023-04-03T02:23:46;5.00;99.90
29241;DHT22;16268;49.880;8.648;2023-04-03T02:26:13;5.00;99.90
29241;DHT22;16268;49.880;8.648;2023-04-03T02:28:39;4.90;99.90
29241;DHT22;16268;49.880;8.648;2023-04-03T02:31:06;4.90;99.90
29241;DHT22;16268;49.880;8.648;2023-04-03T02:33:32;4.90;99.90
29241;DHT22;16268;49.880;8.648;2023-04-03T02:35:58;4.90;99.90
29241;DHT22;16268;49.880;8.648;2023-04-03T02:38:24;4.90;99.90
29241;DHT22;16268;49.880;8.648;2023-04-03T02:40:50;4.80;99.90
29241;DHT22;16268;49.880;8.648;2023-04-03T02:43:16;4.90;99.90
29241;DHT22;16268;49.880;8.648;2023-04-03T02:45:42;4.90;99.90
29241;DHT22;16268;49.880;8.648;2023-04-03T02:48:08;4.80;99.90
29241;DHT22;16268;49.880;8.648;2023-04-03T02:50:33;4.80;99.90
29241;DHT22;16268;49.880;8.648;2023-04-03T02:52:59;4.70;99.90
29241;DHT22;16268;49.880;8.648;2023-04-03T02:55:24;4.70;99.90
29241;DHT22;16268;49.880;8.648;2023-04-03T02:57:50;4.70;99.90
29241;DHT22;16268;49.880;8.648;2023-04-03T03:00:16;4.70;99.90
29241;DHT22;16268;49.880;8.648;2023-04-03T03:02:41;4.70;99.90
29241;DHT22;16268;49.880;8.648;2023-04-03T03:05:08;4.60;99.90
29241;DHT22;16268;49.880;8.648;2023-04-03T03:07:34;4.60;99.90
29241;DHT22;16268;49.880;8.648;2023-04-03T03:09:59;4.60;99.90
29241;DHT22;16268;49.880;8.648;2023-04-03T03:12:25;4.60;99.90
29241;DHT22;16268;49.880;8.648;2023-04-03T03:14:51;4.50;99.90
29241;DHT22;16268;49.880;8.648;2023-04-03T03:17:17;4.60;99.90
29241;DHT22;16268;49.880;8.648;2023-04-03T03:19:43;4.60;99.90
29241;DHT22;16268;49.880;8.648;2023-04-03T03:22:11;4.60;99.90
29241;DHT22;16268;49.880;8.648;2023-04-03T03:24:36;4.50;99.90
29241;DHT22;16268;49.880;8.648;2023-04-03T03:27:02;4.50;99.90
29241;DHT22;16268;49.880;8.648;2023-04-03T03:29:27;4.50;99.90
29241;DHT22;16268;49.880;8.648;2023-04-03T03:31:53;4.40;99.90
29241;DHT22;16268;49.880;8.648;2023-04-03T03:34:19;4.50;99.90
29241;DHT22;16268;49.880;8.648;2023-04-03T03:36:44;4.40;99.90
29241;DHT22;16268;49.880;8.648;2023-04-03T03:39:10;4.40;99.90
29241;DHT22;16268;49.880;8.648;2023-04-03T03:41:35;4.50;99.90
29241;DHT22;16268;49.880;8.648;2023-04-03T03:44:01;4.40;99.90
29241;DHT22;16268;49.880;8.648;2023-04-03T03:46:27;4.40;99.90
29241;DHT22;16268;49.880;8.648;2023-04-03T03:48:52;4.40;99.90
29241;DHT22;16268;49.880;8.648;2023-04-03T03:51:18;4.40;99.90
29241;DHT22;16268;49.880;8.648;2023-04-03T03:53:43;4.40;99.90
29241;DHT22;16268;49.880;8.648;2023-04-03T03:56:09;4.40;99.90
29241;DHT22;16268;49.880;8.648;2023-04-03T03:58:35;4.40;99.90
29241;DHT22;16268;49.880;8.648;2023-04-03T04:01:04;4.40;99.90
29241;DHT22;16268;49.880;8.648;2023-04-03T04:03:31;4.40;99.90
29241;DHT22;16268;49.880;8.648;2023-04-03T04:05:56;4.40;99.90
29241;DHT22;16268;49.880;8.648;2023-04-03T04:08:22;4.40;99.90
29241;DHT22;16268;49.880;8.648;2023-04-03T04:10:48;4.40;99.90
29241;DHT22;16268;49.880;8.648;2023-04-03T04:13:13;4.50;99.90
29241;DHT22;16268;49.880;8.648;2023-04-03T04:15:39;4.50;99.90
29241;DHT22;16268;49.880;8.648;2023-04-03T04:18:05;4.50;99.90
29241;DHT22;16268;49.880;8.648;2023-04-03T04:20:31;4.50;99.90
29241;DHT22;16268;49.880;8.648;2023-04-03T04:22:56;4.50;99.90
29241;DHT22;16268;49.880;8.648;2023-04-03T04:25:22;4.50;99.90
29241;DHT22;16268;49.880;8.648;2023-04-03T04:27:47;4.50;99.90
29241;DHT22;16268;49.880;8.648;2023-04-03T04:30:13;4.50;99.90
29241;DHT22;16268;49.880;8.648;2023-04-03T04:32:39;4.50;99.90
29241;DHT22;16268;49.880;8.648;2023-04-03T04:35:04;4.50;99.90
29241;DHT22;16268;49.880;8.648;2023-04-03T04:37:31;4.50;99.90
29241;DHT22;16268;49.880;8.648;2023-04-03T04:39:56;4.50;99.90
29241;DHT22;16268;49.880;8.648;2023-04-03T04:42:22;4.40;99.90
29241;DHT22;16268;49.880;8.648;2023-04-03T04:44:47;4.40;99.90
29241;DHT22;16268;49.880;8.648;2023-04-03T04:47:13;4.40;99.90
29241;DHT22;16268;49.880;8.648;2023-04-03T04:49:38;4.40;99.90
29241;DHT22;16268;49.880;8.648;2023-04-03T04:52:04;4.40;99.90
29241;DHT22;16268;49.880;8.648;2023-04-03T04:54:30;4.40;99.90
29241;DHT22;16268;49.880;8.648;2023-04-03T04:56:56;4.40;99.90
29241;DHT22;16268;49.880;8.648;2023-04-03T04:59:21;4.40;99.90
29241;DHT22;16268;49.880;8.648;2023-04-03T05:01:47;4.40;99.90
29241;DHT22;16268;49.880;8.648;2023-04-03T05:04:12;4.40;99.90
29241;DHT22;16268;49.880;8.648;2023-04-03T05:06:38;4.40;99.90
29241;DHT22;16268;49.880;8.648;2023-04-03T05:09:04;4.40;99.90
29241;DHT22;16268;49.880;8.648;2023-04-03T05:11:30;4.40;99.90
29241;DHT22;16268;49.880;8.648;2023-04-03T05:13:56;4.40;99.90
29241;DHT22;16268;49.880;8.648;2023-04-03T05:16:21;4.50;99.90
29241;DHT22;16268;49.880;8.648;2023-04-03T05:18:47;4.40;99.90
29241;DHT22;16268;49.880;8.648;2023-04-03T05:21:12;4.50;99.90
29241;DHT22;16268;49.880;8.648;2023-04-03T05:23:38;4.40;99.90
29241;DHT22;16268;49.880;8.648;2023-04-03T05:26:03;4.40;99.90
29241;DHT22;16268;49.880;8.648;2023-04-03T05:28:29;4.40;99.90
29241;DHT22;16268;49.880;8.648;2023-04-03T05:30:57;4.40;99.90
29241;DHT22;16268;49.880;8.648;2023-04-03T05:33:23;4.30;99.90
29241;DHT22;16268;49.880;8.648;2023-04-03T05:35:49;4.40;99.90
29241;DHT22;16268;49.880;8.648;2023-04-03T05:38:15;4.40;99.90
29241;DHT22;16268;49.880;8.648;2023-04-03T05:40:40;4.40;99.90
29241;DHT22;16268;49.880;8.648;2023-04-03T05:43:06;4.30;99.90
29241;DHT22;16268;49.880;8.648;2023-04-03T05:45:32;4.30;99.90
29241;DHT22;16268;49.880;8.648;2023-04-03T05:47:57;4.40;99.90
29241;DHT22;16268;49.880;8.648;2023-04-03T05:50:23;4.40;99.90
29241;DHT22;16268;49.880;8.648;2023-04-03T05:52:49;4.50;99.90
29241;DHT22;16268;49.880;8.648;2023-04-03T05:55:16;4.60;99.90
29241;DHT22;16268;49.880;8.648;2023-04-03T05:57:41;4.50;99.90
29241;DHT22;16268;49.880;8.648;2023-04-03T06:00:08;4.50;99.90
29241;DHT22;16268;49.880;8.648;2023-04-03T06:02:35;4.50;99.90
29241;DHT22;16268;49.880;8.648;2023-04-03T06:05:01;4.50;99.90
29241;DHT22;16268;49.880;8.648;2023-04-03T06:07:27;4.60;99.90
29241;DHT22;16268;49.880;8.648;2023-04-03T06:09:55;4.70;99.90
29241;DHT22;16268;49.880;8.648;2023-04-03T06:12:21;4.80;99.90
29241;DHT22;16268;49.880;8.648;2023-04-03T06:14:47;5.20;99.90
29241;DHT22;16268;49.880;8.648;2023-04-03T06:17:14;5.50;99.90
29241;DHT22;16268;49.880;8.648;2023-04-03T06:19:41;5.40;99.90
29241;DHT22;16268;49.880;8.648;2023-04-03T06:22:06;5.10;99.90
29241;DHT22;16268;49.880;8.648;2023-04-03T06:24:32;5.00;99.90
29241;DHT22;16268;49.880;8.648;2023-04-03T06:26:58;5.20;99.90
29241;DHT22;16268;49.880;8.648;2023-04-03T06:29:24;5.40;99.90
29241;DHT22;16268;49.880;8.648;2023-04-03T06:31:50;5.30;99.90
29241;DHT22;16268;49.880;8.648;2023-04-03T06:34:17;5.40;99.90
29241;DHT22;16268;49.880;8.648;2023-04-03T06:36:44;5.50;99.90
29241;DHT22;16268;49.880;8.648;2023-04-03T06:39:15;5.80;99.90
29241;DHT22;16268;49.880;8.648;2023-04-03T06:41:42;5.80;99.90
29241;DHT22;16268;49.880;8.648;2023-04-03T06:44:07;5.80;99.90
29241;DHT22;16268;49.880;8.648;2023-04-03T06:46:37;6.10;99.90
29241;DHT22;16268;49.880;8.648;2023-04-03T06:49:03;6.60;99.90
29241;DHT22;16268;49.880;8.648;2023-04-03T06:51:30;6.80;99.90
29241;DHT22;16268;49.880;8.648;2023-04-03T06:53:58;7.60;99.90
29241;DHT22;16268;49.880;8.648;2023-04-03T06:56:24;8.10;99.90
29241;DHT22;16268;49.880;8.648;2023-04-03T06:58:50;8.60;99.90
29241;DHT22;16268;49.880;8.648;2023-04-03T07:01:17;8.40;99.90
29241;DHT22;16268;49.880;8.648;2023-04-03T07:03:44;8.70;99.90
29241;DHT22;16268;49.880;8.648;2023-04-03T07:06:12;8.50;99.90
29241;DHT22;16268;49.880;8.648;2023-04-03T07:08:38;8.50;99.90
29241;DHT22;16268;49.880;8.648;2023-04-03T07:11:04;8.90;99.90
29241;DHT22;16268;49.880;8.648;2023-04-03T07:13:30;9.10;99.90
29241;DHT22;16268;49.880;8.648;2023-04-03T07:15:56;9.70;99.90
29241;DHT22;16268;49.880;8.648;2023-04-03T07:18:22;9.80;99.90
29241;DHT22;16268;49.880;8.648;2023-04-03T07:20:48;9.50;99.90
29241;DHT22;16268;49.880;8.648;2023-04-03T07:23:14;8.80;99.90
29241;DHT22;16268;49.880;8.648;2023-04-03T07:25:47;8.80;99.90
29241;DHT22;16268;49.880;8.648;2023-04-03T07:28:14;9.00;99.90
29241;DHT22;16268;49.880;8.648;2023-04-03T07:30:49;8.70;99.90
29241;DHT22;16268;49.880;8.648;2023-04-03T07:33:16;8.60;99.90
29241;DHT22;16268;49.880;8.648;2023-04-03T07:35:43;8.50;99.90
29241;DHT22;16268;49.880;8.648;2023-04-03T07:38:09;8.70;99.90
29241;DHT22;16268;49.880;8.648;2023-04-03T07:40:35;8.70;99.90
29241;DHT22;16268;49.880;8.648;2023-04-03T07:43:04;8.60;99.90
29241;DHT22;16268;49.880;8.648;2023-04-03T07:45:31;9.10;99.90
29241;DHT22;16268;49.880;8.648;2023-04-03T07:47:56;10.00;99.90
29241;DHT22;16268;49.880;8.648;2023-04-03T07:50:22;9.80;99.90
29241;DHT22;16268;49.880;8.648;2023-04-03T07:52:48;10.00;99.90
29241;DHT22;16268;49.880;8.648;2023-04-03T07:55:14;10.20;99.90
29241;DHT22;16268;49.880;8.648;2023-04-03T07:57:39;10.50;99.90
29241;DHT22;16268;49.880;8.648;2023-04-03T08:00:05;10.40;99.90
29241;DHT22;16268;49.880;8.648;2023-04-03T08:02:31;9.50;99.90
29241;DHT22;16268;49.880;8.648;2023-04-03T08:04:58;9.40;99.90
29241;DHT22;16268;49.880;8.648;2023-04-03T08:07:23;9.70;99.90
29241;DHT22;16268;49.880;8.648;2023-04-03T08:09:49;9.40;99.90
29241;DHT22;16268;49.880;8.648;2023-04-03T08:12:14;9.90;99.90
29241;DHT22;16268;49.880;8.648;2023-04-03T08:14:40;9.70;99.90
29241;DHT22;16268;49.880;8.648;2023-04-03T08:17:06;9.30;99.90
29241;DHT22;16268;49.880;8.648;2023-04-03T08:19:34;9.10;99.90
29241;DHT22;16268;49.880;8.648;2023-04-03T08:22:00;9.00;99.90
29241;DHT22;16268;49.880;8.648;2023-04-03T08:24:28;9.20;99.90
29241;DHT22;16268;49.880;8.648;2023-04-03T08:26:54;9.60;99.90
29241;DHT22;16268;49.880;8.648;2023-04-03T08:29:20;9.70;99.90
29241;DHT22;16268;49.880;8.648;2023-04-03T08:31:46;10.20;99.90
29241;DHT22;16268;49.880;8.648;2023-04-03T08:34:12;10.60;99.90
29241;DHT22;16268;49.880;8.648;2023-04-03T08:36:38;10.80;98.20
29241;DHT22;16268;49.880;8.648;2023-04-03T08:39:04;10.60;99.80
29241;DHT22;16268;49.880;8.648;2023-04-03T08:41:43;10.80;97.80
29241;DHT22;16268;49.880;8.648;2023-04-03T08:47:38;9.90;99.50
29241;DHT22;16268;49.880;8.648;2023-04-03T08:50:26;9.70;99.90
29241;DHT22;16268;49.880;8.648;2023-04-03T08:52:59;10.00;99.90
29241;DHT22;16268;49.880;8.648;2023-04-03T08:55:34;10.70;98.90
29241;DHT22;16268;49.880;8.648;2023-04-03T08:58:04;11.10;97.70
29241;DHT22;16268;49.880;8.648;2023-04-03T09:00:55;11.00;97.80
29241;DHT22;16268;49.880;8.648;2023-04-03T09:03:23;11.00;96.10
29241;DHT22;16268;49.880;8.648;2023-04-03T09:06:07;11.10;96.80
29241;DHT22;16268;49.880;8.648;2023-04-03T09:08:43;11.70;94.10
29241;DHT22;16268;49.880;8.648;2023-04-03T09:11:21;11.70;94.70
29241;DHT22;16268;49.880;8.648;2023-04-03T09:14:03;11.00;94.40
29241;DHT22;16268;49.880;8.648;2023-04-03T09:19:35;10.00;98.60
29241;DHT22;16268;49.880;8.648;2023-04-03T09:22:23;9.70;98.20
29241;DHT22;16268;49.880;8.648;2023-04-03T09:25:03;9.00;98.90
29241;DHT22;16268;49.880;8.648;2023-04-03T09:27:31;8.80;99.90
29241;DHT22;16268;49.880;8.648;2023-04-03T09:29:57;9.20;99.90
29241;DHT22;16268;49.880;8.648;2023-04-03T09:32:28;9.70;99.80
29241;DHT22;16268;49.880;8.648;2023-04-03T09:35:03;9.80;98.90
29241;DHT22;16268;49.880;8.648;2023-04-03T09:37:44;9.50;97.60
29241;DHT22;16268;49.880;8.648;2023-04-03T09:42:52;9.50;99.20
29241;DHT22;16268;49.880;8.648;2023-04-03T09:45:27;9.70;99.10
29241;DHT22;16268;49.880;8.648;2023-04-03T09:48:17;9.90;97.90
29241;DHT22;16268;49.880;8.648;2023-04-03T09:50:55;9.80;95.90
29241;DHT22;16268;49.880;8.648;2023-04-03T09:53:42;9.30;96.80
29241;DHT22;16268;49.880;8.648;2023-04-03T09:56:22;9.60;97.60
29241;DHT22;16268;49.880;8.648;2023-04-03T09:59:06;9.30;99.00
29241;DHT22;16268;49.880;8.648;2023-04-03T10:01:34;9.10;98.30
29241;DHT22;16268;49.880;8.648;2023-04-03T10:14:27;10.10;97.00
29241;DHT22;16268;49.880;8.648;2023-04-03T10:17:02;10.10;96.40
29241;DHT22;16268;49.880;8.648;2023-04-03T10:19:36;10.10;95.80
29241;DHT22;16268;49.880;8.648;2023-04-03T10:25:01;10.10;96.50
29241;DHT22;16268;49.880;8.648;2023-04-03T10:32:54;9.40;98.00
29241;DHT22;16268;49.880;8.648;2023-04-03T10:35:44;9.10;97.00
29241;DHT22;16268;49.880;8.648;2023-04-03T10:38:23;9.00;97.10
29241;DHT22;16268;49.880;8.648;2023-04-03T10:41:07;9.20;96.40
29241;DHT22;16268;49.880;8.648;2023-04-03T10:46:45;9.70;96.60
29241;DHT22;16268;49.880;8.648;2023-04-03T10:52:10;10.00;95.60
29241;DHT22;16268;49.880;8.648;2023-04-03T10:57:39;9.90;95.70
29241;DHT22;16268;49.880;8.648;2023-04-03T11:00:07;9.90;95.40
29241;DHT22;16268;49.880;8.648;2023-04-03T11:02:49;9.70;95.40
29241;DHT22;16268;49.880;8.648;2023-04-03T11:05:34;9.50;95.10
29241;DHT22;16268;49.880;8.648;2023-04-03T11:08:21;9.50;95.50
29241;DHT22;16268;49.880;8.648;2023-04-03T11:10:51;9.90;95.20
29241;DHT22;16268;49.880;8.648;2023-04-03T11:13:46;10.00;94.40
29241;DHT22;16268;49.880;8.648;2023-04-03T11:16:08;9.70;95.00
29241;DHT22;16268;49.880;8.648;2023-04-03T11:18:45;9.50;95.10
29241;DHT22;16268;49.880;8.648;2023-04-03T11:21:32;9.20;95.60
29241;DHT22;16268;49.880;8.648;2023-04-03T11:24:03;9.40;96.10
29241;DHT22;16268;49.880;8.648;2023-04-03T11:26:36;9.40;96.00
29241;DHT22;16268;49.880;8.648;2023-04-03T11:29:12;9.50;94.70
29241;DHT22;16268;49.880;8.648;2023-04-03T11:32:17;9.90;94.40
29241;DHT22;16268;49.880;8.648;2023-04-03T11:34:48;10.10;94.20
29241;DHT22;16268;49.880;8.648;2023-04-03T11:37:31;9.90;94.20
29241;DHT22;16268;49.880;8.648;2023-04-03T11:40:06;9.50;93.70
29241;DHT22;16268;49.880;8.648;2023-04-03T11:42:40;9.40;94.30
29241;DHT22;16268;49.880;8.648;2023-04-03T11:47:55;9.30;93.50
29241;DHT22;16268;49.880;8.648;2023-04-03T11:53:44;9.70;93.20
29241;DHT22;16268;49.880;8.648;2023-04-03T11:58:32;9.50;92.20
29241;DHT22;16268;49.880;8.648;2023-04-03T12:01:05;9.40;92.70
29241;DHT22;16268;49.880;8.648;2023-04-03T12:03:35;9.30;93.30
29241;DHT22;16268;49.880;8.648;2023-04-03T12:08:47;9.40;92.50
29241;DHT22;16268;49.880;8.648;2023-04-03T12:11:31;9.30;92.60
29241;DHT22;16268;49.880;8.648;2023-04-03T12:27:02;9.70;86.20
29241;DHT22;16268;49.880;8.648;2023-04-03T12:40:25;9.30;77.60
29241;DHT22;16268;49.880;8.648;2023-04-03T12:42:58;9.40;73.40
29241;DHT22;16268;49.880;8.648;2023-04-03T12:45:40;9.40;75.20
29241;DHT22;16268;49.880;8.648;2023-04-03T12:48:14;9.50;72.30
29241;DHT22;16268;49.880;8.648;2023-04-03T12:50:41;9.50;72.00
29241;DHT22;16268;49.880;8.648;2023-04-03T12:53:18;9.50;71.20
29241;DHT22;16268;49.880;8.648;2023-04-03T12:55:45;9.40;69.30
29241;DHT22;16268;49.880;8.648;2023-04-03T12:58:27;9.60;70.90
29241;DHT22;16268;49.880;8.648;2023-04-03T13:01:25;9.60;68.30
29241;DHT22;16268;49.880;8.648;2023-04-03T13:03:55;9.60;67.20
29241;DHT22;16268;49.880;8.648;2023-04-03T13:06:27;9.70;66.30
29241;DHT22;16268;49.880;8.648;2023-04-03T13:08:56;9.70;62.90
29241;DHT22;16268;49.880;8.648;2023-04-03T13:11:30;9.80;62.90
29241;DHT22;16268;49.880;8.648;2023-04-03T13:14:01;9.70;61.10
29241;DHT22;16268;49.880;8.648;2023-04-03T13:16:29;9.50;59.10
29241;DHT22;16268;49.880;8.648;2023-04-03T13:18:55;9.50;59.60
29241;DHT22;16268;49.880;8.648;2023-04-03T13:21:25;9.50;62.80
29241;DHT22;16268;49.880;8.648;2023-04-03T13:23:57;9.50;66.00
29241;DHT22;16268;49.880;8.648;2023-04-03T13:26:26;9.50;66.30
29241;DHT22;16268;49.880;8.648;2023-04-03T13:28:54;9.50;65.20
29241;DHT22;16268;49.880;8.648;2023-04-03T13:31:39;9.70;66.80
29241;DHT22;16268;49.880;8.648;2023-04-03T13:34:13;9.70;68.90
29241;DHT22;16268;49.880;8.648;2023-04-03T13:36:43;9.70;70.50
29241;DHT22;16268;49.880;8.648;2023-04-03T13:41:41;9.70;70.20
29241;DHT22;16268;49.880;8.648;2023-04-03T13:46:50;9.70;70.70
29241;DHT22;16268;49.880;8.648;2023-04-03T13:49:38;9.60;71.10
29241;DHT22;16268;49.880;8.648;2023-04-03T13:54:54;9.30;71.60
29241;DHT22;16268;49.880;8.648;2023-04-03T13:57:20;9.20;73.40
29241;DHT22;16268;49.880;8.648;2023-04-03T13:59:46;9.30;74.20
29241;DHT22;16268;49.880;8.648;2023-04-03T14:02:17;9.50;73.50
29241;DHT22;16268;49.880;8.648;2023-04-03T14:04:47;9.60;71.40
29241;DHT22;16268;49.880;8.648;2023-04-03T14:07:15;9.70;69.70
29241;DHT22;16268;49.880;8.648;2023-04-03T14:09:41;9.70;71.50
29241;DHT22;16268;49.880;8.648;2023-04-03T14:12:30;9.60;71.50
29241;DHT22;16268;49.880;8.648;2023-04-03T14:14:56;9.50;73.80
29241;DHT22;16268;49.880;8.648;2023-04-03T14:17:24;9.70;72.50
29241;DHT22;16268;49.880;8.648;2023-04-03T14:19:54;9.80;72.50
29241;DHT22;16268;49.880;8.648;2023-04-03T14:22:23;9.80;71.30
29241;DHT22;16268;49.880;8.648;2023-04-03T14:24:49;9.70;71.50
29241;DHT22;16268;49.880;8.648;2023-04-03T14:29:47;9.50;71.00
29241;DHT22;16268;49.880;8.648;2023-04-03T14:32:14;9.60;72.30
29241;DHT22;16268;49.880;8.648;2023-04-03T14:34:42;9.40;71.70
29241;DHT22;16268;49.880;8.648;2023-04-03T14:37:18;9.50;73.40
29241;DHT22;16268;49.880;8.648;2023-04-03T14:39:44;9.70;72.80
29241;DHT22;16268;49.880;8.648;2023-04-03T14:42:13;9.70;72.80
29241;DHT22;16268;49.880;8.648;2023-04-03T14:44:39;9.60;73.20
29241;DHT22;16268;49.880;8.648;2023-04-03T14:47:05;9.40;73.80
29241;DHT22;16268;49.880;8.648;2023-04-03T14:49:30;9.30;74.20
29241;DHT22;16268;49.880;8.648;2023-04-03T14:51:57;9.40;74.20
29241;DHT22;16268;49.880;8.648;2023-04-03T14:54:23;9.50;75.00
29241;DHT22;16268;49.880;8.648;2023-04-03T14:56:53;9.60;74.80
29241;DHT22;16268;49.880;8.648;2023-04-03T14:59:19;9.80;75.70
29241;DHT22;16268;49.880;8.648;2023-04-03T15:01:47;9.70;74.50
29241;DHT22;16268;49.880;8.648;2023-04-03T15:04:20;9.70;75.50
29241;DHT22;16268;49.880;8.648;2023-04-03T15:06:47;9.50;76.40
29241;DHT22;16268;49.880;8.648;2023-04-03T15:09:22;9.30;75.10
29241;DHT22;16268;49.880;8.648;2023-04-03T15:11:50;9.20;77.10
29241;DHT22;16268;49.880;8.648;2023-04-03T15:14:16;9.40;77.40
29241;DHT22;16268;49.880;8.648;2023-04-03T15:16:41;9.50;76.10
29241;DHT22;16268;49.880;8.648;2023-04-03T15:19:07;9.50;75.50
29241;DHT22;16268;49.880;8.648;2023-04-03T15:21:33;9.50;75.90
29241;DHT22;16268;49.880;8.648;2023-04-03T15:23:58;9.40;77.20
29241;DHT22;16268;49.880;8.648;2023-04-03T15:26:24;9.50;78.20
29241;DHT22;16268;49.880;8.648;2023-04-03T15:28:51;9.50;77.50
29241;DHT22;16268;49.880;8.648;2023-04-03T15:31:16;9.40;77.10
29241;DHT22;16268;49.880;8.648;2023-04-03T15:33:42;9.30;76.80
29241;DHT22;16268;49.880;8.648;2023-04-03T15:36:08;9.20;76.80
29241;DHT22;16268;49.880;8.648;2023-04-03T15:38:34;9.00;77.80
29241;DHT22;16268;49.880;8.648;2023-04-03T15:41:00;9.00;78.40
29241;DHT22;16268;49.880;8.648;2023-04-03T15:43:26;9.00;79.30
29241;DHT22;16268;49.880;8.648;2023-04-03T15:45:51;8.90;78.30
29241;DHT22;16268;49.880;8.648;2023-04-03T15:48:18;8.90;79.00
29241;DHT22;16268;49.880;8.648;2023-04-03T15:50:43;9.00;79.30
29241;DHT22;16268;49.880;8.648;2023-04-03T15:53:09;9.00;81.40
29241;DHT22;16268;49.880;8.648;2023-04-03T15:55:37;9.10;80.10
29241;DHT22;16268;49.880;8.648;2023-04-03T15:58:03;9.20;79.70
29241;DHT22;16268;49.880;8.648;2023-04-03T16:00:30;9.00;78.90
29241;DHT22;16268;49.880;8.648;2023-04-03T16:03:04;9.00;79.90
29241;DHT22;16268;49.880;8.648;2023-04-03T16:05:31;8.90;80.40
29241;DHT22;16268;49.880;8.648;2023-04-03T16:07:57;8.90;81.20
29241;DHT22;16268;49.880;8.648;2023-04-03T16:10:26;9.00;81.60
29241;DHT22;16268;49.880;8.648;2023-04-03T16:12:52;9.00;81.20
29241;DHT22;16268;49.880;8.648;2023-04-03T16:15:18;9.00;80.90
29241;DHT22;16268;49.880;8.648;2023-04-03T16:17:44;8.90;81.00
29241;DHT22;16268;49.880;8.648;2023-04-03T16:20:11;8.80;80.90
29241;DHT22;16268;49.880;8.648;2023-04-03T16:22:37;8.80;81.70
29241;DHT22;16268;49.880;8.648;2023-04-03T16:25:05;8.70;81.70
29241;DHT22;16268;49.880;8.648;2023-04-03T16:27:31;8.80;81.50
29241;DHT22;16268;49.880;8.648;2023-04-03T16:29:57;8.70;82.10
29241;DHT22;16268;49.880;8.648;2023-04-03T16:32:24;8.60;82.50
29241;DHT22;16268;49.880;8.648;2023-04-03T16:34:53;8.60;81.50
29241;DHT22;16268;49.880;8.648;2023-04-03T16:37:18;8.50;81.30
29241;DHT22;16268;49.880;8.648;2023-04-03T16:39:44;8.40;82.50
29241;DHT22;16268;49.880;8.648;2023-04-03T16:42:10;8.40;83.10
29241;DHT22;16268;49.880;8.648;2023-04-03T16:44:36;8.40;82.80
29241;DHT22;16268;49.880;8.648;2023-04-03T16:47:02;8.40;83.10
29241;DHT22;16268;49.880;8.648;2023-04-03T16:49:28;8.40;82.50
29241;DHT22;16268;49.880;8.648;2023-04-03T16:52:01;8.30;82.90
29241;DHT22;16268;49.880;8.648;2023-04-03T16:54:27;8.30;83.00
29241;DHT22;16268;49.880;8.648;2023-04-03T16:56:53;8.20;82.50
29241;DHT22;16268;49.880;8.648;2023-04-03T16:59:18;8.20;84.00
29241;DHT22;16268;49.880;8.648;2023-04-03T17:01:44;8.20;84.40
29241;DHT22;16268;49.880;8.648;2023-04-03T17:04:10;8.20;85.10
29241;DHT22;16268;49.880;8.648;2023-04-03T17:06:35;8.10;85.40
29241;DHT22;16268;49.880;8.648;2023-04-03T17:09:01;8.10;85.80
29241;DHT22;16268;49.880;8.648;2023-04-03T17:11:28;8.10;85.60
29241;DHT22;16268;49.880;8.648;2023-04-03T17:13:54;8.00;85.90
29241;DHT22;16268;49.880;8.648;2023-04-03T17:16:23;7.90;85.70
29241;DHT22;16268;49.880;8.648;2023-04-03T17:18:49;7.90;86.60
29241;DHT22;16268;49.880;8.648;2023-04-03T17:21:15;7.90;87.80